Patcona II — WDC2170 — position and weather

sailwx.info

Track history (hours):
 
Tides and Currents Weather Stations Pressure Air Temp Water Temp Dewpoint Dewpoint Depression Visibility Wind Speed Wind Dir Waves Ship Positions

Patcona II

Owner: Connolly-Pacific Co, long beach, CA. More information available from US FCC via Universal Licensing System and Coast Guard Vessel Documentation Center.

Last reported at 2017-Jan-15 14:33 UTC. Time now 2017-Jan-16 19:21 UTC.
Position N 29°29' W 094°52'.

; draft 9 m.

Type: Towing. MMSI: 366988960.

Date/timePositionNaut miles runAvg speedWind from/ knotsBaromVisibWave heightAir tempDewpointWater temp
2017-Jan-15 14:33N 29°29' W 094°52'2 1.0
2017-Jan-15 12:26N 29°31' W 094°53'1219422.3
2017-Jan-15 09:33N 33°46' W 118°13'120423810.7
2017-Jan-15 09:30N 29°45' W 095°06'12041286.7
2017-Jan-15 08:33N 33°46' W 118°13'0 0.0
2017-Jan-15 07:33N 33°46' W 118°13'0 0.0
2017-Jan-15 06:33N 33°46' W 118°13'0 0.0
2017-Jan-15 05:23N 33°46' W 118°13'0 0.0
2017-Jan-15 01:23N 33°46' W 118°13'0 0.0
2017-Jan-15 00:33N 33°46' W 118°13'0 0.0
2017-Jan-14 23:33N 33°46' W 118°13'120414591.4
2017-Jan-14 23:28N 29°45' W 095°06'0 0.0
2017-Jan-14 22:33N 29°45' W 095°06'1204309546.2
2017-Jan-14 22:33N 33°46' W 118°13'0 0.0
2017-Jan-14 21:33N 33°46' W 118°13'1204722274.4
2017-Jan-14 21:33N 29°45' W 095°06'0 0.0
2017-Jan-14 20:33N 29°45' W 095°06'12041083411.6
2017-Jan-14 20:33N 33°46' W 118°13'0 0.0
2017-Jan-14 19:33N 33°46' W 118°13'1204481515.5
2017-Jan-14 19:33N 29°45' W 095°06'0 0.0
2017-Jan-14 18:34N 29°45' W 095°06'1204173346.3
2017-Jan-14 18:33N 33°46' W 118°13'12041211.5
2017-Jan-14 17:33N 29°45' W 095°06'1204131322.6
2017-Jan-14 17:33N 33°46' W 118°13'12041214.9
2017-Jan-14 16:33N 29°45' W 095°06'0 0.0
2017-Jan-14 15:34N 29°45' W 095°06'0 0.0
2017-Jan-14 14:33N 29°45' W 095°06'0 0.0
2017-Jan-14 13:33N 29°45' W 095°06'7 0.5
2017-Jan-13 23:33N 29°41' W 094°59'5 4.9
2017-Jan-13 22:33N 29°37' W 095°01'0 0.1
2017-Jan-13 21:33N 29°37' W 095°01'0 0.0
2017-Jan-13 20:33N 29°37' W 095°01'0 0.0
2017-Jan-13 19:34N 29°37' W 095°01'0 0.0
2017-Jan-13 18:33N 29°37' W 095°01'0 0.0
2017-Jan-13 17:33N 29°37' W 095°01'0 0.0
2017-Jan-13 16:33N 29°37' W 095°01'0 0.0
2017-Jan-13 15:33N 29°37' W 095°01'0 0.0
2017-Jan-13 14:33N 29°37' W 095°01'0 0.0
2017-Jan-13 13:33N 29°37' W 095°01'0 0.0
2017-Jan-13 12:34N 29°37' W 095°01'0 0.0
2017-Jan-13 11:33N 29°37' W 095°01'0 0.0
2017-Jan-13 10:33N 29°37' W 095°01'0 0.0
2017-Jan-13 09:34N 29°37' W 095°01'0 0.0
2017-Jan-13 08:33N 29°37' W 095°01'0 0.0
2017-Jan-13 07:33N 29°37' W 095°01'0 0.0
2017-Jan-13 06:33N 29°37' W 095°01'0 0.0
2017-Jan-13 05:33N 29°37' W 095°01'0 0.0
2017-Jan-13 04:33N 29°37' W 095°01'0 0.0
2017-Jan-13 03:33N 29°37' W 095°01'0 0.0
2017-Jan-13 02:33N 29°37' W 095°01'0 0.0
2017-Jan-13 01:33N 29°37' W 095°01'0 0.0
2017-Jan-13 00:33N 29°37' W 095°01'0 0.0
2017-Jan-12 23:33N 29°37' W 095°01'0 0.0
2017-Jan-12 22:33N 29°37' W 095°01'0 0.0
2017-Jan-12 21:33N 29°37' W 095°01'0 0.0
2017-Jan-12 20:33N 29°37' W 095°01'0 0.0
2017-Jan-12 19:33N 29°37' W 095°01'0 0.0
2017-Jan-12 18:34N 29°37' W 095°01'1 0.7
2017-Jan-12 17:33N 29°37' W 095°01'5 4.6
2017-Jan-12 16:32N 29°41' W 094°59'7 6.9
2017-Jan-12 15:32N 29°45' W 095°06'120483.8
2017-Jan-12 01:10N 33°46' W 118°13'0 0.0
2017-Jan-12 00:34N 33°46' W 118°13'12021151.7
2017-Jan-11 23:31N 29°44' W 095°08'1202196732.2
2017-Jan-11 23:31N 33°46' W 118°13'12021210.3
2017-Jan-11 22:31N 29°44' W 095°08'0 0.0
2017-Jan-11 21:31N 29°44' W 095°08'0 0.0
2017-Jan-11 20:31N 29°44' W 095°08'0 0.0
2017-Jan-11 19:28N 29°44' W 095°08'0 0.0
2017-Jan-11 18:31N 29°44' W 095°08'0 0.0
2017-Jan-11 17:25N 29°44' W 095°08'0 0.0
2017-Jan-11 16:31N 29°44' W 095°08'3 2.6
2017-Jan-11 15:32N 29°45' W 095°06'1 0.6
2017-Jan-11 13:24N 29°46' W 095°06'1 0.5
2017-Jan-11 12:18N 29°46' W 095°06'0 0.0
2017-Jan-11 01:20N 29°46' W 095°06'2 0.5
2017-Jan-10 21:13N 29°47' W 095°04'0 0.0
2017-Jan-10 19:31N 29°47' W 095°04'0 0.0
2017-Jan-10 18:31N 29°47' W 095°04'0 0.0
2017-Jan-10 17:15N 29°47' W 095°04'2 2.3
2017-Jan-10 16:33N 29°46' W 095°05'6 0.5
2017-Jan-10 04:13N 29°45' W 095°11'3 0.3
2017-Jan-09 18:33N 29°43' W 095°14'6 6.2
2017-Jan-09 17:34N 29°44' W 095°07'1203233.4
2017-Jan-09 12:24N 33°46' W 118°13'0 0.0
2017-Jan-09 11:22N 33°46' W 118°13'0 0.0
2017-Jan-09 10:33N 33°46' W 118°13'12043529.3
2017-Jan-09 10:13N 29°45' W 095°06'12041628.1
2017-Jan-09 09:29N 33°46' W 118°13'0 0.0
2017-Jan-09 08:33N 33°46' W 118°13'12049009.3
2017-Jan-09 08:25N 29°45' W 095°06'12041398.8
2017-Jan-09 07:33N 33°46' W 118°13'0 0.0
2017-Jan-09 06:33N 33°46' W 118°13'12024354.3
2017-Jan-09 06:17N 29°44' W 095°08'12021593.6
2017-Jan-09 05:32N 33°46' W 118°13'1204866645.9
2017-Jan-09 05:31N 29°45' W 095°06'12041243.0
2017-Jan-09 04:33N 33°46' W 118°13'12047837.1
2017-Jan-09 04:24N 29°45' W 095°06'12041412.6
2017-Jan-09 03:33N 33°46' W 118°13'120420252.0
2017-Jan-09 03:29N 29°45' W 095°06'12041247.2
2017-Jan-09 02:32N 33°46' W 118°13'1204577.5
2017-Jan-09 00:26N 29°45' W 095°06'0 0.0
2017-Jan-08 23:33N 29°45' W 095°06'0 0.0
2017-Jan-08 22:33N 29°45' W 095°06'0 0.0
2017-Jan-08 21:33N 29°45' W 095°06'1 1.1
2017-Jan-08 20:13N 29°46' W 095°06'1 2.1
2017-Jan-08 19:34N 29°45' W 095°06'0 0.0
2017-Jan-08 18:27N 29°45' W 095°06'0 0.0
2017-Jan-08 17:30N 29°45' W 095°06'0 0.1
2017-Jan-08 16:33N 29°45' W 095°06'1204127474.4
2017-Jan-08 16:33N 33°46' W 118°13'0 0.0
2017-Jan-08 15:13N 33°46' W 118°13'0 0.0
2017-Jan-08 14:33N 33°46' W 118°13'12041193.5
2017-Jan-08 13:32N 29°45' W 095°06'120463728.6
2017-Jan-08 13:31N 33°46' W 118°13'0 0.0
2017-Jan-08 12:33N 33°46' W 118°13'0 0.0
2017-Jan-08 11:33N 33°46' W 118°13'1198343.1
2017-Jan-08 08:04N 29°43' W 095°14'3 4.6
2017-Jan-08 07:30N 29°45' W 095°11'1 0.1
2017-Jan-07 23:31N 29°45' W 095°11'0 0.0
2017-Jan-07 22:33N 29°45' W 095°11'0 0.4
2017-Jan-07 21:33N 29°45' W 095°10'12001199.5
2017-Jan-07 20:33N 33°46' W 118°13'120332085.8
2017-Jan-07 20:31N 29°44' W 095°07'0 0.0
2017-Jan-07 19:31N 29°44' W 095°07'120337666.0
2017-Jan-07 19:29N 33°46' W 118°13'12031295.0
2017-Jan-07 18:33N 29°44' W 095°07'4 4.5
2017-Jan-07 17:33N 29°44' W 095°12'11995089.9
2017-Jan-07 17:19N 33°46' W 118°13'11991533.2
2017-Jan-07 16:32N 29°44' W 095°12'1199719306.2
2017-Jan-07 16:32N 33°46' W 118°13'0 0.0
2017-Jan-07 15:33N 33°46' W 118°13'119971930.6
2017-Jan-07 15:32N 29°44' W 095°12'0 0.0
2017-Jan-07 14:32N 29°44' W 095°12'119918443.8
2017-Jan-07 14:28N 33°46' W 118°13'11991281.4
2017-Jan-07 13:32N 29°44' W 095°12'0 0.0
2017-Jan-07 12:32N 29°44' W 095°12'0 0.0
2017-Jan-07 11:32N 29°44' W 095°12'11999105.2
2017-Jan-07 11:24N 33°46' W 118°13'11991304.7
2017-Jan-07 10:29N 29°44' W 095°12'119910475.4
2017-Jan-07 10:22N 33°46' W 118°13'11991352.9
2017-Jan-07 09:29N 29°44' W 095°12'0 0.0
2017-Jan-07 08:29N 29°44' W 095°12'119965391.5
2017-Jan-07 08:28N 33°46' W 118°13'11991287.9
2017-Jan-07 07:32N 29°44' W 095°12'0 0.0
2017-Jan-07 06:32N 29°44' W 095°12'0 0.0
2017-Jan-07 04:26N 29°44' W 095°12'11991348.7
2017-Jan-07 03:33N 33°46' W 118°13'119919440.8
2017-Jan-07 03:29N 29°44' W 095°12'0 0.0
2017-Jan-07 02:32N 29°44' W 095°12'0 0.0
2017-Jan-07 01:29N 29°44' W 095°12'11993069.6
2017-Jan-07 01:06N 33°46' W 118°13'0 0.0
2017-Jan-07 00:33N 33°46' W 118°13'11999764.4
2017-Jan-07 00:26N 29°44' W 095°12'0 0.0
2017-Jan-06 23:29N 29°44' W 095°12'0 0.0
2017-Jan-06 22:32N 29°44' W 095°12'0 0.0
2017-Jan-06 21:32N 29°44' W 095°12'0 0.0
2017-Jan-06 20:32N 29°44' W 095°12'0 0.0
2017-Jan-06 19:33N 29°44' W 095°12'4 4.0
2017-Jan-06 18:31N 29°45' W 095°17'1 0.1
2017-Jan-06 07:30N 29°44' W 095°16'4 3.7
2017-Jan-06 06:33N 29°45' W 095°12'2 0.3
2017-Jan-05 22:34N 29°44' W 095°09'3 1.2
2017-Jan-05 20:10N 29°45' W 095°06'0 0.0
2017-Jan-05 19:16N 29°45' W 095°06'0 0.0
2017-Jan-05 18:28N 29°45' W 095°06'0 0.0
2017-Jan-05 15:22N 29°45' W 095°06'  
Track history (hours):
 
Tides and Currents Weather Stations Pressure Air Temp Water Temp Dewpoint Dewpoint Depression Visibility Wind Speed Wind Dir Waves Ship Positions

Patcona II

Owner: Connolly-Pacific Co, long beach, CA. More information available from US FCC via Universal Licensing System and Coast Guard Vessel Documentation Center.

Last reported at 2017-Jan-15 14:33 UTC. Time now 2017-Jan-16 19:21 UTC.
Position N 29°29' W 094°52'.

; draft 9 m.

Type: Towing. MMSI: 366988960.

Date/timePositionNaut miles runAvg speedWind from/ knotsBaromVisibWave heightAir tempDewpointWater temp
2017-Jan-15 14:33N 29°29' W 094°52'2 1.0
2017-Jan-15 12:26N 29°31' W 094°53'1219422.3
2017-Jan-15 09:33N 33°46' W 118°13'120423810.7
2017-Jan-15 09:30N 29°45' W 095°06'12041286.7
2017-Jan-15 08:33N 33°46' W 118°13'0 0.0
2017-Jan-15 07:33N 33°46' W 118°13'0 0.0
2017-Jan-15 06:33N 33°46' W 118°13'0 0.0
2017-Jan-15 05:23N 33°46' W 118°13'0 0.0
2017-Jan-15 01:23N 33°46' W 118°13'0 0.0
2017-Jan-15 00:33N 33°46' W 118°13'0 0.0
2017-Jan-14 23:33N 33°46' W 118°13'120414591.4
2017-Jan-14 23:28N 29°45' W 095°06'0 0.0
2017-Jan-14 22:33N 29°45' W 095°06'1204309546.2
2017-Jan-14 22:33N 33°46' W 118°13'0 0.0
2017-Jan-14 21:33N 33°46' W 118°13'1204722274.4
2017-Jan-14 21:33N 29°45' W 095°06'0 0.0
2017-Jan-14 20:33N 29°45' W 095°06'12041083411.6
2017-Jan-14 20:33N 33°46' W 118°13'0 0.0
2017-Jan-14 19:33N 33°46' W 118°13'1204481515.5
2017-Jan-14 19:33N 29°45' W 095°06'0 0.0
2017-Jan-14 18:34N 29°45' W 095°06'1204173346.3
2017-Jan-14 18:33N 33°46' W 118°13'12041211.5
2017-Jan-14 17:33N 29°45' W 095°06'1204131322.6
2017-Jan-14 17:33N 33°46' W 118°13'12041214.9
2017-Jan-14 16:33N 29°45' W 095°06'0 0.0
2017-Jan-14 15:34N 29°45' W 095°06'0 0.0
2017-Jan-14 14:33N 29°45' W 095°06'0 0.0
2017-Jan-14 13:33N 29°45' W 095°06'7 0.5
2017-Jan-13 23:33N 29°41' W 094°59'5 4.9
2017-Jan-13 22:33N 29°37' W 095°01'0 0.1
2017-Jan-13 21:33N 29°37' W 095°01'0 0.0
2017-Jan-13 20:33N 29°37' W 095°01'0 0.0
2017-Jan-13 19:34N 29°37' W 095°01'0 0.0
2017-Jan-13 18:33N 29°37' W 095°01'0 0.0
2017-Jan-13 17:33N 29°37' W 095°01'0 0.0
2017-Jan-13 16:33N 29°37' W 095°01'0 0.0
2017-Jan-13 15:33N 29°37' W 095°01'0 0.0
2017-Jan-13 14:33N 29°37' W 095°01'0 0.0
2017-Jan-13 13:33N 29°37' W 095°01'0 0.0
2017-Jan-13 12:34N 29°37' W 095°01'0 0.0
2017-Jan-13 11:33N 29°37' W 095°01'0 0.0
2017-Jan-13 10:33N 29°37' W 095°01'0 0.0
2017-Jan-13 09:34N 29°37' W 095°01'0 0.0
2017-Jan-13 08:33N 29°37' W 095°01'0 0.0
2017-Jan-13 07:33N 29°37' W 095°01'0 0.0
2017-Jan-13 06:33N 29°37' W 095°01'0 0.0
2017-Jan-13 05:33N 29°37' W 095°01'0 0.0
2017-Jan-13 04:33N 29°37' W 095°01'0 0.0
2017-Jan-13 03:33N 29°37' W 095°01'0 0.0
2017-Jan-13 02:33N 29°37' W 095°01'0 0.0
2017-Jan-13 01:33N 29°37' W 095°01'0 0.0
2017-Jan-13 00:33N 29°37' W 095°01'0 0.0
2017-Jan-12 23:33N 29°37' W 095°01'0 0.0
2017-Jan-12 22:33N 29°37' W 095°01'0 0.0
2017-Jan-12 21:33N 29°37' W 095°01'0 0.0
2017-Jan-12 20:33N 29°37' W 095°01'0 0.0
2017-Jan-12 19:33N 29°37' W 095°01'0 0.0
2017-Jan-12 18:34N 29°37' W 095°01'1 0.7
2017-Jan-12 17:33N 29°37' W 095°01'5 4.6
2017-Jan-12 16:32N 29°41' W 094°59'7 6.9
2017-Jan-12 15:32N 29°45' W 095°06'120483.8
2017-Jan-12 01:10N 33°46' W 118°13'0 0.0
2017-Jan-12 00:34N 33°46' W 118°13'12021151.7
2017-Jan-11 23:31N 29°44' W 095°08'1202196732.2
2017-Jan-11 23:31N 33°46' W 118°13'12021210.3
2017-Jan-11 22:31N 29°44' W 095°08'0 0.0
2017-Jan-11 21:31N 29°44' W 095°08'0 0.0
2017-Jan-11 20:31N 29°44' W 095°08'0 0.0
2017-Jan-11 19:28N 29°44' W 095°08'0 0.0
2017-Jan-11 18:31N 29°44' W 095°08'0 0.0
2017-Jan-11 17:25N 29°44' W 095°08'0 0.0
2017-Jan-11 16:31N 29°44' W 095°08'3 2.6
2017-Jan-11 15:32N 29°45' W 095°06'1 0.6
2017-Jan-11 13:24N 29°46' W 095°06'1 0.5
2017-Jan-11 12:18N 29°46' W 095°06'0 0.0
2017-Jan-11 01:20N 29°46' W 095°06'2 0.5
2017-Jan-10 21:13N 29°47' W 095°04'0 0.0
2017-Jan-10 19:31N 29°47' W 095°04'0 0.0
2017-Jan-10 18:31N 29°47' W 095°04'0 0.0
2017-Jan-10 17:15N 29°47' W 095°04'2 2.3
2017-Jan-10 16:33N 29°46' W 095°05'6 0.5
2017-Jan-10 04:13N 29°45' W 095°11'3 0.3
2017-Jan-09 18:33N 29°43' W 095°14'6 6.2
2017-Jan-09 17:34N 29°44' W 095°07'1203233.4
2017-Jan-09 12:24N 33°46' W 118°13'0 0.0
2017-Jan-09 11:22N 33°46' W 118°13'0 0.0
2017-Jan-09 10:33N 33°46' W 118°13'12043529.3
2017-Jan-09 10:13N 29°45' W 095°06'12041628.1
2017-Jan-09 09:29N 33°46' W 118°13'0 0.0
2017-Jan-09 08:33N 33°46' W 118°13'12049009.3
2017-Jan-09 08:25N 29°45' W 095°06'12041398.8
2017-Jan-09 07:33N 33°46' W 118°13'0 0.0
2017-Jan-09 06:33N 33°46' W 118°13'12024354.3
2017-Jan-09 06:17N 29°44' W 095°08'12021593.6
2017-Jan-09 05:32N 33°46' W 118°13'1204866645.9
2017-Jan-09 05:31N 29°45' W 095°06'12041243.0
2017-Jan-09 04:33N 33°46' W 118°13'12047837.1
2017-Jan-09 04:24N 29°45' W 095°06'12041412.6
2017-Jan-09 03:33N 33°46' W 118°13'120420252.0
2017-Jan-09 03:29N 29°45' W 095°06'12041247.2
2017-Jan-09 02:32N 33°46' W 118°13'1204577.5
2017-Jan-09 00:26N 29°45' W 095°06'0 0.0
2017-Jan-08 23:33N 29°45' W 095°06'0 0.0
2017-Jan-08 22:33N 29°45' W 095°06'0 0.0
2017-Jan-08 21:33N 29°45' W 095°06'1 1.1
2017-Jan-08 20:13N 29°46' W 095°06'1 2.1
2017-Jan-08 19:34N 29°45' W 095°06'0 0.0
2017-Jan-08 18:27N 29°45' W 095°06'0 0.0
2017-Jan-08 17:30N 29°45' W 095°06'0 0.1
2017-Jan-08 16:33N 29°45' W 095°06'1204127474.4
2017-Jan-08 16:33N 33°46' W 118°13'0 0.0
2017-Jan-08 15:13N 33°46' W 118°13'0 0.0
2017-Jan-08 14:33N 33°46' W 118°13'12041193.5
2017-Jan-08 13:32N 29°45' W 095°06'120463728.6
2017-Jan-08 13:31N 33°46' W 118°13'0 0.0
2017-Jan-08 12:33N 33°46' W 118°13'0 0.0
2017-Jan-08 11:33N 33°46' W 118°13'1198343.1
2017-Jan-08 08:04N 29°43' W 095°14'3 4.6
2017-Jan-08 07:30N 29°45' W 095°11'1 0.1
2017-Jan-07 23:31N 29°45' W 095°11'0 0.0
2017-Jan-07 22:33N 29°45' W 095°11'0 0.4
2017-Jan-07 21:33N 29°45' W 095°10'12001199.5
2017-Jan-07 20:33N 33°46' W 118°13'120332085.8
2017-Jan-07 20:31N 29°44' W 095°07'0 0.0
2017-Jan-07 19:31N 29°44' W 095°07'120337666.0
2017-Jan-07 19:29N 33°46' W 118°13'12031295.0
2017-Jan-07 18:33N 29°44' W 095°07'4 4.5
2017-Jan-07 17:33N 29°44' W 095°12'11995089.9
2017-Jan-07 17:19N 33°46' W 118°13'11991533.2
2017-Jan-07 16:32N 29°44' W 095°12'1199719306.2
2017-Jan-07 16:32N 33°46' W 118°13'0 0.0
2017-Jan-07 15:33N 33°46' W 118°13'119971930.6
2017-Jan-07 15:32N 29°44' W 095°12'0 0.0
2017-Jan-07 14:32N 29°44' W 095°12'119918443.8
2017-Jan-07 14:28N 33°46' W 118°13'11991281.4
2017-Jan-07 13:32N 29°44' W 095°12'0 0.0
2017-Jan-07 12:32N 29°44' W 095°12'0 0.0
2017-Jan-07 11:32N 29°44' W 095°12'11999105.2
2017-Jan-07 11:24N 33°46' W 118°13'11991304.7
2017-Jan-07 10:29N 29°44' W 095°12'119910475.4
2017-Jan-07 10:22N 33°46' W 118°13'11991352.9
2017-Jan-07 09:29N 29°44' W 095°12'0 0.0
2017-Jan-07 08:29N 29°44' W 095°12'119965391.5
2017-Jan-07 08:28N 33°46' W 118°13'11991287.9
2017-Jan-07 07:32N 29°44' W 095°12'0 0.0
2017-Jan-07 06:32N 29°44' W 095°12'0 0.0
2017-Jan-07 04:26N 29°44' W 095°12'11991348.7
2017-Jan-07 03:33N 33°46' W 118°13'119919440.8
2017-Jan-07 03:29N 29°44' W 095°12'0 0.0
2017-Jan-07 02:32N 29°44' W 095°12'0 0.0
2017-Jan-07 01:29N 29°44' W 095°12'11993069.6
2017-Jan-07 01:06N 33°46' W 118°13'0 0.0
2017-Jan-07 00:33N 33°46' W 118°13'11999764.4
2017-Jan-07 00:26N 29°44' W 095°12'0 0.0
2017-Jan-06 23:29N 29°44' W 095°12'0 0.0
2017-Jan-06 22:32N 29°44' W 095°12'0 0.0
2017-Jan-06 21:32N 29°44' W 095°12'0 0.0
2017-Jan-06 20:32N 29°44' W 095°12'0 0.0
2017-Jan-06 19:33N 29°44' W 095°12'4 4.0
2017-Jan-06 18:31N 29°45' W 095°17'1 0.1
2017-Jan-06 07:30N 29°44' W 095°16'4 3.7
2017-Jan-06 06:33N 29°45' W 095°12'2 0.3
2017-Jan-05 22:34N 29°44' W 095°09'3 1.2
2017-Jan-05 20:10N 29°45' W 095°06'0 0.0
2017-Jan-05 19:16N 29°45' W 095°06'0 0.0
2017-Jan-05 18:28N 29°45' W 095°06'0 0.0
2017-Jan-05 15:22N 29°45' W 095°06'  

Dump ship's entire track history